createdAt,value
2023-07-24T00:00:01.687Z,984.48
2023-07-24T00:01:01.739Z,984.44
2023-07-24T00:02:01.680Z,984.44
2023-07-24T00:03:01.737Z,984.47
2023-07-24T00:04:01.649Z,984.42
2023-07-24T00:05:01.677Z,984.42
2023-07-24T00:06:01.649Z,984.43
2023-07-24T00:07:01.658Z,984.39
2023-07-24T00:08:01.681Z,984.35
2023-07-24T00:09:01.604Z,984.37
2023-07-24T00:10:01.621Z,984.36
2023-07-24T00:11:01.627Z,984.35
2023-07-24T00:12:01.601Z,984.31
2023-07-24T00:13:01.624Z,984.33
2023-07-24T00:14:01.612Z,984.31
2023-07-24T00:15:01.570Z,984.28
2023-07-24T00:16:01.637Z,984.27
2023-07-24T00:17:01.627Z,984.30
2023-07-24T00:18:01.618Z,984.32
2023-07-24T00:19:01.548Z,984.31
2023-07-24T00:20:01.590Z,984.27
2023-07-24T00:21:01.561Z,984.21
2023-07-24T00:22:01.577Z,984.28
2023-07-24T00:23:01.546Z,984.27
2023-07-24T00:24:01.534Z,984.23
2023-07-24T00:25:01.516Z,984.20
2023-07-24T00:26:01.515Z,984.16
2023-07-24T00:27:01.537Z,984.19
2023-07-24T00:28:01.532Z,984.19
2023-07-24T00:29:01.508Z,984.20
2023-07-24T00:30:01.543Z,984.17
2023-07-24T00:31:01.551Z,984.24
2023-07-24T00:32:01.484Z,984.22
2023-07-24T00:33:01.561Z,984.30
2023-07-24T00:34:01.517Z,984.24
2023-07-24T00:35:01.489Z,984.20
2023-07-24T00:36:01.470Z,984.22
2023-07-24T00:37:01.481Z,984.24
2023-07-24T00:38:01.497Z,984.20
2023-07-24T00:39:01.442Z,984.18
2023-07-24T00:40:01.442Z,984.18
2023-07-24T00:41:01.428Z,984.22
2023-07-24T00:42:01.402Z,984.28
2023-07-24T00:43:01.442Z,984.23
2023-07-24T00:44:01.418Z,984.27
2023-07-24T00:45:03.368Z,984.22
2023-07-24T00:46:01.412Z,984.23
2023-07-24T00:47:01.442Z,984.22
2023-07-24T00:48:01.498Z,984.20
2023-07-24T00:49:01.402Z,984.22
2023-07-24T00:50:01.443Z,984.15
2023-07-24T00:51:01.387Z,984.20
2023-07-24T00:52:01.362Z,984.12
2023-07-24T00:53:02.394Z,984.20
2023-07-24T00:54:01.331Z,984.21
2023-07-24T00:55:01.355Z,984.25
2023-07-24T00:56:01.334Z,984.23
2023-07-24T00:57:01.317Z,984.21
2023-07-24T00:58:01.326Z,984.23
2023-07-24T00:59:01.333Z,984.22
2023-07-24T01:00:02.336Z,984.28
2023-07-24T01:01:01.382Z,984.25
2023-07-24T01:02:01.279Z,984.24
2023-07-24T01:03:01.347Z,984.25
2023-07-24T01:04:01.281Z,984.22
2023-07-24T01:05:01.314Z,984.20
2023-07-24T01:06:01.274Z,984.26
2023-07-24T01:07:01.294Z,984.25
2023-07-24T01:08:01.266Z,984.30
2023-07-24T01:09:01.255Z,984.21
2023-07-24T01:10:01.273Z,984.30
2023-07-24T01:11:01.238Z,984.23
2023-07-24T01:12:01.247Z,984.30
2023-07-24T01:13:01.229Z,984.21
2023-07-24T01:14:01.247Z,984.24
2023-07-24T01:15:01.186Z,984.23
2023-07-24T01:16:01.210Z,984.25
2023-07-24T01:17:01.307Z,984.24
2023-07-24T01:18:01.230Z,984.26
2023-07-24T01:19:01.174Z,984.23
2023-07-24T01:20:01.220Z,984.15
2023-07-24T01:21:01.158Z,984.08
2023-07-24T01:22:01.173Z,984.12
2023-07-24T01:23:01.264Z,984.12
2023-07-24T01:24:01.140Z,984.11
2023-07-24T01:25:01.157Z,984.12
2023-07-24T01:26:01.120Z,984.17
2023-07-24T01:27:01.135Z,984.11
2023-07-24T01:28:01.147Z,984.11
2023-07-24T01:29:01.106Z,984.02
2023-07-24T01:30:01.113Z,984.04
2023-07-24T01:31:01.156Z,984.04
2023-07-24T01:32:01.123Z,984.07
2023-07-24T01:33:01.177Z,984.05
2023-07-24T01:34:01.087Z,984.03
2023-07-24T01:35:01.058Z,983.97
2023-07-24T01:36:01.062Z,983.99
2023-07-24T01:37:01.060Z,983.97
2023-07-24T01:38:01.096Z,983.97
2023-07-24T01:39:01.020Z,983.96
2023-07-24T01:40:01.040Z,984.02
2023-07-24T01:41:01.027Z,983.98
2023-07-24T01:42:01.044Z,983.98
2023-07-24T01:43:01.044Z,983.95
2023-07-24T01:44:01.008Z,983.93
2023-07-24T01:45:01.006Z,983.91
2023-07-24T01:46:01.063Z,983.88
2023-07-24T01:47:01.009Z,983.84
2023-07-24T01:48:01.096Z,983.82
2023-07-24T01:49:01.032Z,983.79
2023-07-24T01:50:00.985Z,983.79
2023-07-24T01:51:01.997Z,983.68
2023-07-24T01:52:00.981Z,983.71
2023-07-24T01:53:00.969Z,983.73
2023-07-24T01:54:00.981Z,983.72
2023-07-24T01:55:00.941Z,983.81
2023-07-24T01:56:00.941Z,983.81
2023-07-24T01:57:00.944Z,983.80
2023-07-24T01:58:00.913Z,983.76
2023-07-24T01:59:00.919Z,983.75
2023-07-24T02:00:00.910Z,983.76
2023-07-24T02:01:00.904Z,983.76
2023-07-24T02:02:00.912Z,983.71
2023-07-24T02:03:00.926Z,983.80
2023-07-24T02:04:00.911Z,983.72
2023-07-24T02:05:00.912Z,983.73
2023-07-24T02:06:00.909Z,983.75
2023-07-24T02:07:00.857Z,983.78
2023-07-24T02:08:00.872Z,983.85
2023-07-24T02:09:00.854Z,983.83
2023-07-24T02:10:00.874Z,983.86
2023-07-24T02:11:00.832Z,983.85
2023-07-24T02:12:00.823Z,983.83
2023-07-24T02:13:00.822Z,983.87
2023-07-24T02:14:00.803Z,983.81
2023-07-24T02:15:00.858Z,983.83
2023-07-24T02:16:00.813Z,983.82
2023-07-24T02:17:00.793Z,983.83
2023-07-24T02:18:00.834Z,983.79
2023-07-24T02:19:00.792Z,983.77
2023-07-24T02:20:00.810Z,983.78
2023-07-24T02:21:00.812Z,983.65
2023-07-24T02:22:00.788Z,983.65
2023-07-24T02:23:00.743Z,983.65
2023-07-24T02:24:00.764Z,983.55
2023-07-24T02:25:00.754Z,983.54
2023-07-24T02:26:00.749Z,983.47
2023-07-24T02:27:00.760Z,983.57
2023-07-24T02:28:00.763Z,983.55
2023-07-24T02:29:00.738Z,983.55
2023-07-24T02:30:00.765Z,983.54
2023-07-24T02:31:00.764Z,983.51
2023-07-24T02:32:00.746Z,983.64
2023-07-24T02:33:00.715Z,983.62
2023-07-24T02:34:00.695Z,983.67
2023-07-24T02:35:00.675Z,983.59
2023-07-24T02:36:00.669Z,983.64
2023-07-24T02:37:00.724Z,983.61
2023-07-24T02:38:00.747Z,983.62
2023-07-24T02:39:00.637Z,983.60
2023-07-24T02:40:00.696Z,983.50
2023-07-24T02:41:00.651Z,983.49
2023-07-24T02:42:00.658Z,983.50
2023-07-24T02:43:00.633Z,983.53
2023-07-24T02:44:00.606Z,983.50
2023-07-24T02:45:00.616Z,983.49
2023-07-24T02:46:00.634Z,983.38
2023-07-24T02:47:00.589Z,983.38
2023-07-24T02:48:00.656Z,983.44
2023-07-24T02:49:00.631Z,983.40
2023-07-24T02:50:00.624Z,983.43
2023-07-24T02:51:00.622Z,983.46
2023-07-24T02:52:00.571Z,983.41
2023-07-24T02:53:00.583Z,983.33
2023-07-24T02:54:00.580Z,983.38
2023-07-24T02:55:00.524Z,983.37
2023-07-24T02:56:00.543Z,983.43
2023-07-24T02:57:00.560Z,983.35
2023-07-24T02:58:00.519Z,983.35
2023-07-24T02:59:00.549Z,983.46
2023-07-24T03:00:00.512Z,983.45
2023-07-24T03:01:00.582Z,983.40
2023-07-24T03:02:00.514Z,983.41
2023-07-24T03:03:00.552Z,983.40
2023-07-24T03:04:00.516Z,983.41
2023-07-24T03:05:00.474Z,983.42
2023-07-24T03:06:00.507Z,983.45
2023-07-24T03:07:00.484Z,983.45
2023-07-24T03:08:00.503Z,983.44
2023-07-24T03:09:00.473Z,983.42
2023-07-24T03:10:00.442Z,983.43
2023-07-24T03:11:00.427Z,983.33
2023-07-24T03:12:00.468Z,983.45
2023-07-24T03:13:00.432Z,983.44
2023-07-24T03:14:00.490Z,983.42
2023-07-24T03:15:00.433Z,983.34
2023-07-24T03:16:00.477Z,983.33
2023-07-24T03:17:03.135Z,983.35
2023-07-24T03:18:00.433Z,983.36
2023-07-24T03:19:00.396Z,983.37
2023-07-24T03:20:00.391Z,983.31
2023-07-24T03:21:00.380Z,983.32
2023-07-24T03:22:00.400Z,983.22
2023-07-24T03:23:00.358Z,983.17
2023-07-24T03:24:00.365Z,983.18
2023-07-24T03:25:00.344Z,983.18
2023-07-24T03:26:00.333Z,983.17
2023-07-24T03:27:00.324Z,983.22
2023-07-24T03:28:00.314Z,983.29
2023-07-24T03:29:00.356Z,983.27
2023-07-24T03:30:00.343Z,983.29
2023-07-24T03:31:00.441Z,983.29
2023-07-24T03:32:00.293Z,983.25
2023-07-24T03:33:00.316Z,983.28
2023-07-24T03:34:00.267Z,983.23
2023-07-24T03:35:00.320Z,983.26
2023-07-24T03:36:00.353Z,983.26
2023-07-24T03:37:00.259Z,983.26
2023-07-24T03:38:00.277Z,983.29
2023-07-24T03:39:00.239Z,983.32
2023-07-24T03:40:00.268Z,983.22
2023-07-24T03:41:00.234Z,983.25
2023-07-24T03:42:00.249Z,983.12
2023-07-24T03:43:00.241Z,983.18
2023-07-24T03:44:00.209Z,983.15
2023-07-24T03:45:00.224Z,983.18
2023-07-24T03:46:00.240Z,983.16
2023-07-24T03:47:00.398Z,983.24
2023-07-24T03:48:00.211Z,983.22
2023-07-24T03:49:00.214Z,983.24
2023-07-24T03:50:00.207Z,983.22
2023-07-24T03:51:00.168Z,983.17
2023-07-24T03:52:00.168Z,983.11
2023-07-24T03:53:00.200Z,983.09
2023-07-24T03:54:00.142Z,983.09
2023-07-24T03:55:00.131Z,983.12
2023-07-24T03:56:00.129Z,983.04
2023-07-24T03:57:00.109Z,983.03
2023-07-24T03:58:00.135Z,983.04
2023-07-24T03:59:00.111Z,982.98
2023-07-24T04:00:00.141Z,983.01
2023-07-24T04:01:00.136Z,982.97
2023-07-24T04:02:00.130Z,983.01
2023-07-24T04:03:00.156Z,983.05
2023-07-24T04:04:00.091Z,983.00
2023-07-24T04:05:00.085Z,983.07
2023-07-24T04:06:00.077Z,983.02
2023-07-24T04:07:00.104Z,983.04
2023-07-24T04:08:00.156Z,982.98
2023-07-24T04:09:00.017Z,982.84
2023-07-24T04:10:00.024Z,982.79
2023-07-24T04:11:00.049Z,982.68
2023-07-24T04:12:00.027Z,982.72
2023-07-24T04:13:00.032Z,982.70
2023-07-24T04:13:59.982Z,982.76
2023-07-24T04:14:59.972Z,982.67
2023-07-24T04:16:00.003Z,982.70
2023-07-24T04:17:00.042Z,982.76
2023-07-24T04:18:00.004Z,982.74
2023-07-24T04:19:00.004Z,982.73
2023-07-24T04:19:59.939Z,982.70
2023-07-24T04:20:59.976Z,982.74
2023-07-24T04:21:59.979Z,982.72
2023-07-24T04:22:59.973Z,982.77
2023-07-24T04:23:59.924Z,982.72
2023-07-24T04:24:59.908Z,982.70
2023-07-24T04:25:59.921Z,982.65
2023-07-24T04:26:59.942Z,982.73
2023-07-24T04:27:59.908Z,982.75
2023-07-24T04:28:59.869Z,982.79
2023-07-24T04:29:59.888Z,982.82
2023-07-24T04:30:59.914Z,982.81
2023-07-24T04:31:59.902Z,982.84
2023-07-24T04:32:59.915Z,982.86
2023-07-24T04:33:59.847Z,982.82
2023-07-24T04:34:59.856Z,982.82
2023-07-24T04:35:59.838Z,982.84
2023-07-24T04:36:59.954Z,982.80
2023-07-24T04:37:59.872Z,982.78
2023-07-24T04:38:59.855Z,982.78
2023-07-24T04:39:59.795Z,982.77
2023-07-24T04:40:59.823Z,982.80
2023-07-24T04:41:59.829Z,982.72
2023-07-24T04:42:59.819Z,982.59
2023-07-24T04:43:59.793Z,982.61
2023-07-24T04:44:59.791Z,982.59
2023-07-24T04:45:59.811Z,982.62
2023-07-24T04:46:59.863Z,982.60
2023-07-24T04:47:59.789Z,982.55
2023-07-24T04:48:59.739Z,982.53
2023-07-24T04:49:59.756Z,982.59
2023-07-24T04:50:59.832Z,982.59
2023-07-24T04:51:59.765Z,982.55
2023-07-24T04:52:59.719Z,982.54
2023-07-24T04:53:59.734Z,982.55
2023-07-24T04:54:59.842Z,982.60
2023-07-24T04:55:59.714Z,982.58
2023-07-24T04:56:59.746Z,982.63
2023-07-24T04:57:59.683Z,982.59
2023-07-24T04:58:59.712Z,982.64
2023-07-24T04:59:59.684Z,982.70
2023-07-24T05:00:59.687Z,982.67
2023-07-24T05:01:59.733Z,982.64
2023-07-24T05:02:59.688Z,982.64
2023-07-24T05:03:59.677Z,982.60
2023-07-24T05:04:59.679Z,982.65
2023-07-24T05:05:59.670Z,982.58
2023-07-24T05:06:59.660Z,982.54
2023-07-24T05:07:59.606Z,982.51
2023-07-24T05:08:59.639Z,982.52
2023-07-24T05:09:59.648Z,982.43
2023-07-24T05:10:59.651Z,982.43
2023-07-24T05:11:59.613Z,982.40
2023-07-24T05:12:59.600Z,982.38
2023-07-24T05:13:59.603Z,982.40
2023-07-24T05:14:59.573Z,982.40
2023-07-24T05:15:59.583Z,982.41
2023-07-24T05:16:59.561Z,982.37
2023-07-24T05:17:59.613Z,982.41
2023-07-24T05:18:59.591Z,982.40
2023-07-24T05:19:59.536Z,982.41
2023-07-24T05:20:59.567Z,982.40
2023-07-24T05:21:59.542Z,982.40
2023-07-24T05:22:59.563Z,982.37
2023-07-24T05:23:59.518Z,982.37
2023-07-24T05:24:59.507Z,982.46
2023-07-24T05:25:59.519Z,982.41
2023-07-24T05:26:59.528Z,982.44
2023-07-24T05:27:59.511Z,982.42
2023-07-24T05:28:59.510Z,982.46
2023-07-24T05:29:59.491Z,982.45
2023-07-24T05:30:59.475Z,982.47
2023-07-24T05:31:59.557Z,982.44
2023-07-24T05:32:59.585Z,982.49
2023-07-24T05:33:59.467Z,982.56
2023-07-24T05:34:59.438Z,982.52
2023-07-24T05:35:59.460Z,982.45
2023-07-24T05:36:59.438Z,982.54
2023-07-24T05:37:59.525Z,982.49
2023-07-24T05:38:59.425Z,982.48
2023-07-24T05:39:59.415Z,982.46
2023-07-24T05:40:59.410Z,982.47
2023-07-24T05:41:59.507Z,982.41
2023-07-24T05:42:59.414Z,982.48
2023-07-24T05:43:59.397Z,982.45
2023-07-24T05:45:00.384Z,982.41
2023-07-24T05:45:59.447Z,982.52
2023-07-24T05:46:59.460Z,982.45
2023-07-24T05:47:59.493Z,982.47
2023-07-24T05:48:59.476Z,982.43
2023-07-24T05:49:59.365Z,982.50
2023-07-24T05:50:59.372Z,982.52
2023-07-24T05:51:59.324Z,982.52
2023-07-24T05:53:01.420Z,982.60
2023-07-24T05:53:59.342Z,982.58
2023-07-24T05:54:59.359Z,982.65
2023-07-24T05:55:59.318Z,982.56
2023-07-24T05:56:59.327Z,982.56
2023-07-24T05:57:59.282Z,982.59
2023-07-24T05:58:59.322Z,982.55
2023-07-24T05:59:59.311Z,982.62
2023-07-24T06:00:59.282Z,982.60
2023-07-24T06:01:59.344Z,982.66
2023-07-24T06:02:59.268Z,982.66
2023-07-24T06:03:59.376Z,982.64
2023-07-24T06:04:59.311Z,982.61
2023-07-24T06:05:59.240Z,982.63
2023-07-24T06:06:59.314Z,982.64
2023-07-24T06:07:59.230Z,982.66
2023-07-24T06:08:59.218Z,982.68
2023-07-24T06:09:59.257Z,982.72
2023-07-24T06:10:59.230Z,982.72
2023-07-24T06:11:59.223Z,982.70
2023-07-24T06:12:59.207Z,982.73
2023-07-24T06:14:00.190Z,982.58
2023-07-24T06:14:59.179Z,982.61
2023-07-24T06:15:59.247Z,982.60
2023-07-24T06:16:59.266Z,982.66
2023-07-24T06:17:59.218Z,982.57
2023-07-24T06:18:59.180Z,982.61
2023-07-24T06:19:59.238Z,982.63
2023-07-24T06:20:59.151Z,982.57
2023-07-24T06:21:59.180Z,982.53
2023-07-24T06:22:59.147Z,982.48
2023-07-24T06:23:59.135Z,982.41
2023-07-24T06:24:59.121Z,982.43
2023-07-24T06:25:59.137Z,982.43
2023-07-24T06:26:59.127Z,982.36
2023-07-24T06:27:59.096Z,982.34
2023-07-24T06:28:59.097Z,982.27
2023-07-24T06:31:00.108Z,982.23
2023-07-24T06:31:59.119Z,982.22
2023-07-24T06:32:59.138Z,982.15
2023-07-24T06:33:59.060Z,982.15
2023-07-24T06:34:59.051Z,982.22
2023-07-24T06:35:59.175Z,982.18
2023-07-24T06:37:09.114Z,982.18
2023-07-24T06:38:01.063Z,982.19
2023-07-24T06:38:59.072Z,982.11
2023-07-24T06:39:59.030Z,982.07
2023-07-24T06:40:59.031Z,981.99
2023-07-24T06:41:59.044Z,982.07
2023-07-24T06:42:59.050Z,982.06
2023-07-24T06:43:59.021Z,982.05
2023-07-24T06:44:59.023Z,982.00
2023-07-24T06:45:59.047Z,982.04
2023-07-24T06:46:59.022Z,982.00
2023-07-24T06:47:59.026Z,981.99
2023-07-24T06:48:58.967Z,981.95
2023-07-24T06:49:59.016Z,981.99
2023-07-24T06:50:59.043Z,981.95
2023-07-24T06:51:58.973Z,981.98
2023-07-24T06:52:58.933Z,981.96
2023-07-24T06:53:58.924Z,981.94
2023-07-24T06:54:58.966Z,981.90
2023-07-24T06:55:58.976Z,981.94
2023-07-24T06:56:58.942Z,981.98
2023-07-24T06:57:58.930Z,981.88
2023-07-24T06:58:58.907Z,981.98
2023-07-24T06:59:58.883Z,981.96
2023-07-24T07:00:58.931Z,981.92
2023-07-24T07:01:58.905Z,981.84
2023-07-24T07:02:58.935Z,981.89
2023-07-24T07:03:58.963Z,981.84
2023-07-24T07:04:58.878Z,981.80
2023-07-24T07:05:58.878Z,981.69
2023-07-24T07:06:58.874Z,981.78
2023-07-24T07:07:58.853Z,981.79
2023-07-24T07:08:58.856Z,981.85
2023-07-24T07:09:58.854Z,981.85
2023-07-24T07:10:58.869Z,981.83
2023-07-24T07:11:58.816Z,981.85
2023-07-24T07:12:58.809Z,981.89
2023-07-24T07:13:58.895Z,981.81
2023-07-24T07:14:58.822Z,981.81
2023-07-24T07:15:58.846Z,981.74
2023-07-24T07:16:58.834Z,981.82
2023-07-24T07:17:58.819Z,981.74
2023-07-24T07:18:58.835Z,981.72
2023-07-24T07:19:58.823Z,981.72
2023-07-24T07:20:58.777Z,981.71
2023-07-24T07:21:58.785Z,981.74
2023-07-24T07:22:58.788Z,981.74
2023-07-24T07:23:58.758Z,981.72
2023-07-24T07:24:58.785Z,981.63
2023-07-24T07:25:58.738Z,981.58
2023-07-24T07:26:58.755Z,981.60
2023-07-24T07:27:58.722Z,981.61
2023-07-24T07:28:58.730Z,981.56
2023-07-24T07:29:58.713Z,981.60
2023-07-24T07:30:58.789Z,981.61
2023-07-24T07:31:58.752Z,981.58
2023-07-24T07:32:58.734Z,981.59
2023-07-24T07:33:58.736Z,981.62
2023-07-24T07:34:58.663Z,981.68
2023-07-24T07:35:59.863Z,981.77
2023-07-24T07:36:59.683Z,981.71
2023-07-24T07:37:58.643Z,981.68
2023-07-24T07:38:58.676Z,981.72
2023-07-24T07:39:58.649Z,981.74
2023-07-24T07:40:58.650Z,981.79
2023-07-24T07:42:12.195Z,981.73
2023-07-24T07:43:00.631Z,981.66
2023-07-24T07:43:58.773Z,981.69
2023-07-24T07:44:58.622Z,981.72
2023-07-24T07:45:58.593Z,981.67
2023-07-24T07:46:58.693Z,981.65
2023-07-24T07:47:58.637Z,981.69
2023-07-24T07:48:58.664Z,981.69
2023-07-24T07:49:58.612Z,981.72
2023-07-24T07:50:58.607Z,981.84
2023-07-24T07:51:58.560Z,981.69
2023-07-24T07:52:58.603Z,981.66
2023-07-24T07:53:58.570Z,981.63
2023-07-24T07:55:00.366Z,981.66
2023-07-24T07:55:58.597Z,981.65
2023-07-24T07:56:58.585Z,981.63
2023-07-24T07:57:58.506Z,981.73
2023-07-24T07:58:58.518Z,981.64
2023-07-24T07:59:58.565Z,981.70
2023-07-24T08:00:58.526Z,981.58
2023-07-24T08:01:58.516Z,981.58
2023-07-24T08:02:58.636Z,981.67
2023-07-24T08:03:58.567Z,981.61
2023-07-24T08:05:01.816Z,981.61
2023-07-24T08:05:59.490Z,981.70
2023-07-24T08:06:58.439Z,981.59
2023-07-24T08:07:58.456Z,981.67
2023-07-24T08:08:58.438Z,981.69
2023-07-24T08:09:58.440Z,981.68
2023-07-24T08:10:58.440Z,981.72
2023-07-24T08:11:58.408Z,981.78
2023-07-24T08:12:58.503Z,981.75
2023-07-24T08:13:58.427Z,981.77
2023-07-24T08:14:58.448Z,981.73
2023-07-24T08:15:58.414Z,981.69
2023-07-24T08:16:58.493Z,981.65
2023-07-24T08:17:58.393Z,981.72
2023-07-24T08:18:58.691Z,981.67
2023-07-24T08:19:59.903Z,981.78
2023-07-24T08:20:58.425Z,981.73
2023-07-24T08:21:58.350Z,981.75
2023-07-24T08:22:58.353Z,981.68
2023-07-24T08:23:58.377Z,981.68
2023-07-24T08:24:58.438Z,981.70
2023-07-24T08:25:58.368Z,981.65
2023-07-24T08:26:58.305Z,981.76
2023-07-24T08:28:05.356Z,981.66
2023-07-24T08:29:00.312Z,981.58
2023-07-24T08:29:58.295Z,981.59
2023-07-24T08:30:58.343Z,981.58
2023-07-24T08:31:58.411Z,981.55
2023-07-24T08:32:58.390Z,981.50
2023-07-24T08:33:58.354Z,981.57
2023-07-24T08:34:58.285Z,981.58
2023-07-24T08:35:58.234Z,981.55
2023-07-24T08:36:58.260Z,981.56
2023-07-24T08:37:58.232Z,981.57
2023-07-24T08:38:58.294Z,981.52
2023-07-24T08:39:58.201Z,981.53
2023-07-24T08:40:58.220Z,981.51
2023-07-24T08:41:58.218Z,981.52
2023-07-24T08:42:58.340Z,981.48
2023-07-24T08:43:58.288Z,981.45
2023-07-24T08:44:58.224Z,981.50
2023-07-24T08:45:58.267Z,981.43
2023-07-24T08:46:58.182Z,981.40
2023-07-24T08:47:58.281Z,981.38
2023-07-24T08:48:58.256Z,981.32
2023-07-24T08:49:58.219Z,981.32
2023-07-24T08:50:58.203Z,981.29
2023-07-24T08:52:00.527Z,981.33
2023-07-24T08:52:58.234Z,981.36
2023-07-24T08:53:58.233Z,981.39
2023-07-24T08:55:00.677Z,981.35
2023-07-24T08:55:58.121Z,981.44
2023-07-24T08:56:58.134Z,981.41
2023-07-24T08:57:59.984Z,981.35
2023-07-24T08:58:58.097Z,981.39
2023-07-24T08:59:58.126Z,981.35
2023-07-24T09:00:58.138Z,981.32
2023-07-24T09:01:58.051Z,981.32
2023-07-24T09:02:58.100Z,981.32
2023-07-24T09:03:58.091Z,981.32
2023-07-24T09:04:58.063Z,981.22
2023-07-24T09:05:58.095Z,981.22
2023-07-24T09:06:58.061Z,981.30
2023-07-24T09:07:58.024Z,981.28
2023-07-24T09:08:58.030Z,981.38
2023-07-24T09:09:58.032Z,981.33
2023-07-24T09:10:58.056Z,981.28
2023-07-24T09:11:58.030Z,981.30
2023-07-24T09:12:57.986Z,981.28
2023-07-24T09:13:59.768Z,981.33
2023-07-24T09:14:57.966Z,981.23
2023-07-24T09:15:58.037Z,981.21
2023-07-24T09:16:58.024Z,981.27
2023-07-24T09:17:58.070Z,981.28
2023-07-24T09:19:10.464Z,981.32
2023-07-24T09:19:59.986Z,981.32
2023-07-24T09:20:57.965Z,981.26
2023-07-24T09:21:57.961Z,981.27
2023-07-24T09:23:14.167Z,981.21
2023-07-24T09:23:59.950Z,981.25
2023-07-24T09:24:57.933Z,981.33
2023-07-24T09:25:57.894Z,981.23
2023-07-24T09:26:59.220Z,981.20
2023-07-24T09:27:58.893Z,981.32
2023-07-24T09:28:57.893Z,981.28
2023-07-24T09:29:57.867Z,981.23
2023-07-24T09:30:57.942Z,981.27
2023-07-24T09:31:57.943Z,981.25
2023-07-24T09:32:57.890Z,981.18
2023-07-24T09:33:57.882Z,981.23
2023-07-24T09:34:57.971Z,981.20
2023-07-24T09:35:57.850Z,981.20
2023-07-24T09:36:58.040Z,981.14
2023-07-24T09:37:57.850Z,981.21
2023-07-24T09:38:57.815Z,981.16
2023-07-24T09:40:00.055Z,981.17
2023-07-24T09:40:57.847Z,981.14
2023-07-24T09:41:57.848Z,980.98
2023-07-24T09:43:25.206Z,981.03
2023-07-24T09:43:59.809Z,980.99
2023-07-24T09:45:04.550Z,981.00
2023-07-24T09:45:58.228Z,980.93
2023-07-24T09:48:02.639Z,980.90
2023-07-24T09:49:58.764Z,981.09
2023-07-24T09:50:57.743Z,980.99
2023-07-24T09:51:57.828Z,981.09
2023-07-24T09:52:57.730Z,981.09
2023-07-24T09:53:57.759Z,980.98
2023-07-24T09:54:57.724Z,981.08
2023-07-24T09:55:57.732Z,981.08
2023-07-24T09:57:06.918Z,981.04
2023-07-24T09:57:59.800Z,981.04
2023-07-24T09:58:57.710Z,981.08
2023-07-24T09:59:57.761Z,981.04
2023-07-24T10:00:57.758Z,980.96
2023-07-24T10:01:57.715Z,980.99
2023-07-24T10:02:57.688Z,981.05
2023-07-24T10:03:57.640Z,981.02
2023-07-24T10:04:57.771Z,981.01
2023-07-24T10:05:57.650Z,980.99
2023-07-24T10:06:57.687Z,980.96
2023-07-24T10:07:57.641Z,980.95
2023-07-24T10:08:57.624Z,980.95
2023-07-24T10:09:57.650Z,980.82
2023-07-24T10:10:57.635Z,980.90
2023-07-24T10:11:57.843Z,980.90
2023-07-24T10:12:57.604Z,980.86
2023-07-24T10:13:57.598Z,980.84
2023-07-24T10:14:58.610Z,980.88
2023-07-24T10:15:57.623Z,980.75
2023-07-24T10:16:58.582Z,980.79
2023-07-24T10:17:57.611Z,980.78
2023-07-24T10:18:57.575Z,980.66
2023-07-24T10:19:57.582Z,980.65
2023-07-24T10:20:57.583Z,980.67
2023-07-24T10:21:57.540Z,980.62
2023-07-24T10:22:57.554Z,980.76
2023-07-24T10:23:57.559Z,980.74
2023-07-24T10:24:57.582Z,980.77
2023-07-24T10:25:57.524Z,980.80
2023-07-24T10:26:57.517Z,980.84
2023-07-24T10:27:57.504Z,980.75
2023-07-24T10:28:57.499Z,980.76
2023-07-24T10:29:57.504Z,980.66
2023-07-24T10:30:58.592Z,980.70
2023-07-24T10:31:57.684Z,980.63
2023-07-24T10:32:57.613Z,980.68
2023-07-24T10:33:57.520Z,980.69
2023-07-24T10:34:57.469Z,980.68
2023-07-24T10:35:57.482Z,980.58
2023-07-24T10:36:57.486Z,980.70
2023-07-24T10:37:57.450Z,980.61
2023-07-24T10:38:57.440Z,980.68
2023-07-24T10:39:57.512Z,980.60
2023-07-24T10:40:57.428Z,980.66
2023-07-24T10:41:57.502Z,980.60
2023-07-24T10:42:57.437Z,980.60
2023-07-24T10:43:57.478Z,980.64
2023-07-24T10:44:57.411Z,980.62
2023-07-24T10:45:57.475Z,980.62
2023-07-24T10:46:57.499Z,980.67
2023-07-24T10:47:57.464Z,980.70
2023-07-24T10:48:57.396Z,980.69
2023-07-24T10:49:57.366Z,980.58
2023-07-24T10:50:57.367Z,980.55
2023-07-24T10:51:57.385Z,980.55
2023-07-24T10:52:57.355Z,980.45
2023-07-24T10:53:57.391Z,980.63
2023-07-24T10:54:57.380Z,980.51
2023-07-24T10:55:57.331Z,980.59
2023-07-24T10:56:57.338Z,980.69
2023-07-24T10:57:57.426Z,980.62
2023-07-24T10:58:57.307Z,980.55
2023-07-24T10:59:57.413Z,980.56
2023-07-24T11:00:57.429Z,980.61
2023-07-24T11:01:57.315Z,980.67
2023-07-24T11:02:57.382Z,980.61
2023-07-24T11:03:57.298Z,980.62
2023-07-24T11:04:57.323Z,980.64
2023-07-24T11:05:57.275Z,980.71
2023-07-24T11:06:57.272Z,980.79
2023-07-24T11:07:57.278Z,980.68
2023-07-24T11:08:57.272Z,980.72
2023-07-24T11:09:57.253Z,980.80
2023-07-24T11:10:57.262Z,980.78
2023-07-24T11:11:57.264Z,980.77
2023-07-24T11:12:57.242Z,980.69
2023-07-24T11:13:57.299Z,980.62
2023-07-24T11:14:57.241Z,980.56
2023-07-24T11:15:57.312Z,980.61
2023-07-24T11:16:57.225Z,980.59
2023-07-24T11:17:57.261Z,980.59
2023-07-24T11:18:57.250Z,980.54
2023-07-24T11:19:57.185Z,980.53
2023-07-24T11:20:57.206Z,980.57
2023-07-24T11:21:57.190Z,980.41
2023-07-24T11:22:57.214Z,980.38
2023-07-24T11:23:57.204Z,980.44
2023-07-24T11:24:57.192Z,980.42
2023-07-24T11:25:57.141Z,980.41
2023-07-24T11:26:57.151Z,980.44
2023-07-24T11:27:57.136Z,980.35
2023-07-24T11:28:57.144Z,980.40
2023-07-24T11:29:57.153Z,980.35
2023-07-24T11:30:57.118Z,980.23
2023-07-24T11:31:57.127Z,980.27
2023-07-24T11:32:57.123Z,980.36
2023-07-24T11:33:57.104Z,980.27
2023-07-24T11:34:58.118Z,980.27
2023-07-24T11:35:57.119Z,980.33
2023-07-24T11:36:57.142Z,980.37
2023-07-24T11:37:57.455Z,980.19
2023-07-24T11:38:57.061Z,980.26
2023-07-24T11:39:57.059Z,980.29
2023-07-24T11:40:57.261Z,980.21
2023-07-24T11:41:57.051Z,980.18
2023-07-24T11:42:57.074Z,980.20
2023-07-24T11:43:57.113Z,980.13
2023-07-24T11:44:57.059Z,980.07
2023-07-24T11:45:57.056Z,980.13
2023-07-24T11:46:59.028Z,980.06
2023-07-24T11:47:58.059Z,980.03
2023-07-24T11:48:57.201Z,980.17
2023-07-24T11:49:57.025Z,980.10
2023-07-24T11:50:56.998Z,980.13
2023-07-24T11:51:57.020Z,980.00
2023-07-24T11:52:56.992Z,980.08
2023-07-24T11:53:57.095Z,980.02
2023-07-24T11:54:56.967Z,979.98
2023-07-24T11:55:57.009Z,979.95
2023-07-24T11:56:56.971Z,979.97
2023-07-24T11:57:56.942Z,980.01
2023-07-24T11:58:56.955Z,979.96
2023-07-24T11:59:56.935Z,979.89
2023-07-24T12:00:56.933Z,979.88
2023-07-24T12:01:56.930Z,979.84
2023-07-24T12:02:57.009Z,979.90
2023-07-24T12:03:57.014Z,979.76
2023-07-24T12:04:56.911Z,979.65
2023-07-24T12:05:56.933Z,979.63
2023-07-24T12:06:56.942Z,979.64
2023-07-24T12:07:56.871Z,979.64
2023-07-24T12:08:56.925Z,979.64
2023-07-24T12:09:56.883Z,979.69
2023-07-24T12:10:56.862Z,979.54
2023-07-24T12:11:56.872Z,979.56
2023-07-24T12:12:56.875Z,979.62
2023-07-24T12:13:56.878Z,979.65
2023-07-24T12:14:56.852Z,979.67
2023-07-24T12:15:56.930Z,979.59
2023-07-24T12:16:56.855Z,979.66
2023-07-24T12:17:56.847Z,979.58
2023-07-24T12:18:56.829Z,979.51
2023-07-24T12:19:56.854Z,979.58
2023-07-24T12:20:56.848Z,979.60
2023-07-24T12:21:56.821Z,979.54
2023-07-24T12:22:56.836Z,979.50
2023-07-24T12:23:56.838Z,979.50
2023-07-24T12:24:56.918Z,979.43
2023-07-24T12:25:56.768Z,979.45
2023-07-24T12:26:56.775Z,979.41
2023-07-24T12:27:56.770Z,979.52
2023-07-24T12:28:57.785Z,979.43
2023-07-24T12:29:56.762Z,979.46
2023-07-24T12:30:56.747Z,979.38